createdAt,value
2019-02-25T00:03:57.590Z,59.37
2019-02-25T00:06:24.808Z,60.25
2019-02-25T00:09:04.278Z,60.61
2019-02-25T00:14:51.485Z,61.22
2019-02-25T00:17:18.680Z,61.38
2019-02-25T00:25:27.047Z,61.78
2019-02-25T00:27:54.284Z,61.89
2019-02-25T00:30:23.248Z,62.01
2019-02-25T00:32:50.395Z,62.49
2019-02-25T00:35:17.693Z,62.74
2019-02-25T00:37:44.897Z,62.77
2019-02-25T00:40:52.923Z,62.88
2019-02-25T00:43:20.432Z,62.96
2019-02-25T00:46:28.455Z,62.75
2019-02-25T00:48:55.627Z,62.74
2019-02-25T00:51:22.827Z,62.87
2019-02-25T00:53:50.484Z,63.25
2019-02-25T00:56:17.734Z,63.29
2019-02-25T01:01:45.794Z,63.04
2019-02-25T01:04:12.968Z,62.98
2019-02-25T01:06:40.161Z,63.10
2019-02-25T01:14:45.084Z,62.57
2019-02-25T01:17:12.234Z,62.93
2019-02-25T01:19:39.416Z,62.81
2019-02-25T01:22:06.624Z,62.23
2019-02-25T01:24:34.147Z,61.92
2019-02-25T01:27:01.373Z,61.61
2019-02-25T01:29:28.605Z,61.10
2019-02-25T01:31:55.755Z,60.49
2019-02-25T01:34:22.940Z,60.42
2019-02-25T01:36:50.141Z,60.24
2019-02-25T01:39:37.062Z,60.34
2019-02-25T01:42:04.239Z,60.26
2019-02-25T01:44:31.432Z,59.75
2019-02-25T01:46:58.576Z,59.37
2019-02-25T01:49:25.781Z,59.20
2019-02-25T01:51:52.940Z,58.87
2019-02-25T01:54:20.131Z,58.34
2019-02-25T01:57:06.807Z,57.77
2019-02-25T01:59:53.689Z,57.53
2019-02-25T02:02:20.926Z,57.00
2019-02-25T02:07:47.521Z,57.01
2019-02-25T02:13:27.893Z,57.81
2019-02-25T02:15:55.308Z,58.24
2019-02-25T02:18:22.470Z,57.74
2019-02-25T02:20:49.552Z,57.35
2019-02-25T02:23:16.742Z,57.42
2019-02-25T02:25:43.940Z,57.51
2019-02-25T02:28:11.152Z,57.59
2019-02-25T02:33:46.837Z,57.53
2019-02-25T02:39:22.224Z,57.54
2019-02-25T02:42:28.306Z,57.41
2019-02-25T02:48:21.971Z,57.60
2019-02-25T02:53:57.270Z,58.42
2019-02-25T03:00:04.520Z,58.83
2019-02-25T03:06:05.225Z,59.23
2019-02-25T03:08:32.411Z,59.55
2019-02-25T03:14:00.965Z,58.87
2019-02-25T03:16:28.163Z,58.86
2019-02-25T03:18:55.329Z,59.44
2019-02-25T03:24:56.359Z,59.93
2019-02-25T03:27:36.129Z,60.22
2019-02-25T03:30:45.108Z,60.59
2019-02-25T03:36:32.539Z,60.77
2019-02-25T03:39:19.206Z,61.52
2019-02-25T03:41:46.414Z,61.39
2019-02-25T03:44:13.612Z,61.45
2019-02-25T03:46:40.800Z,61.32
2019-02-25T03:49:08.015Z,60.01
2019-02-25T03:51:35.205Z,58.27
2019-02-25T03:57:03.598Z,56.02
2019-02-25T03:59:30.867Z,56.45
2019-02-25T04:05:00.503Z,57.14
2019-02-25T04:07:34.794Z,57.58
2019-02-25T04:10:02.049Z,57.67
2019-02-25T04:13:11.817Z,57.62
2019-02-25T04:18:19.532Z,58.68
2019-02-25T04:24:20.554Z,59.18
2019-02-25T04:26:59.735Z,59.56
2019-02-25T04:29:26.973Z,59.37
2019-02-25T04:31:54.153Z,59.39
2019-02-25T04:34:21.683Z,60.21
2019-02-25T04:45:53.181Z,60.65
2019-02-25T04:54:33.687Z,60.15
2019-02-25T04:57:00.929Z,60.58
2019-02-25T05:02:08.491Z,61.79
2019-02-25T05:07:15.992Z,62.96
2019-02-25T05:09:43.258Z,63.11
2019-02-25T05:12:10.477Z,63.37
2019-02-25T05:14:37.674Z,63.68
2019-02-25T05:17:04.856Z,64.02
2019-02-25T05:19:51.620Z,64.44
2019-02-25T05:22:19.131Z,65.03
2019-02-25T05:25:05.834Z,65.50
2019-02-25T05:31:25.489Z,65.53
2019-02-25T05:33:52.884Z,66.11
2019-02-25T05:37:00.962Z,65.60
2019-02-25T05:39:28.145Z,65.49
2019-02-25T05:41:55.315Z,66.10
2019-02-25T05:44:34.927Z,66.31
2019-02-25T05:47:02.084Z,66.61
2019-02-25T05:49:29.583Z,66.23
2019-02-25T05:51:57.199Z,66.27
2019-02-25T05:54:24.316Z,66.92
2019-02-25T05:56:51.480Z,67.13
2019-02-25T05:59:19.080Z,67.19
2019-02-25T06:08:07.459Z,67.00
2019-02-25T06:10:34.645Z,66.34
2019-02-25T06:13:01.850Z,65.55
2019-02-25T06:15:29.080Z,65.38
2019-02-25T06:17:56.232Z,65.41
2019-02-25T06:20:23.433Z,65.22
2019-02-25T06:22:50.664Z,64.84
2019-02-25T06:25:17.925Z,65.25
2019-02-25T06:28:05.411Z,65.59
2019-02-25T06:30:44.974Z,66.55
2019-02-25T06:33:53.064Z,66.61
2019-02-25T06:36:39.991Z,66.68
2019-02-25T06:39:07.642Z,66.69
2019-02-25T06:41:36.676Z,66.69
2019-02-25T06:44:03.872Z,66.76
2019-02-25T06:46:31.120Z,66.73
2019-02-25T06:48:58.214Z,66.57
2019-02-25T06:51:37.748Z,66.87
2019-02-25T06:54:05.248Z,67.04
2019-02-25T06:57:13.306Z,61.13
2019-02-25T06:59:40.472Z,56.16
2019-02-25T07:02:48.542Z,51.97
2019-02-25T07:09:10.142Z,47.20
2019-02-25T07:11:57.338Z,45.02
2019-02-25T07:14:30.328Z,41.67
2019-02-25T07:17:17.061Z,38.61
2019-02-25T07:20:03.844Z,37.71
2019-02-25T07:26:10.512Z,36.07
2019-02-25T07:28:57.665Z,36.17
2019-02-25T07:31:44.471Z,34.40
2019-02-25T07:34:50.716Z,31.14
2019-02-25T07:37:37.484Z,27.12
2019-02-25T07:43:47.839Z,23.16
2019-02-25T07:46:27.234Z,20.22
2019-02-25T07:49:26.352Z,17.95
2019-02-25T07:52:13.070Z,16.00
2019-02-25T07:54:49.163Z,14.82
2019-02-25T08:00:56.293Z,12.58
2019-02-25T08:03:43.043Z,12.25
2019-02-25T08:06:30.220Z,11.36
2019-02-25T08:09:17.213Z,11.20
2019-02-25T08:12:04.058Z,11.20
2019-02-25T08:15:10.308Z,10.32
2019-02-25T08:17:57.260Z,10.41
2019-02-25T08:20:44.041Z,10.07
2019-02-25T08:23:52.097Z,9.16
2019-02-25T08:29:51.135Z,9.46
2019-02-25T08:32:37.980Z,9.17
2019-02-25T08:35:46.311Z,8.92
2019-02-25T08:41:40.773Z,9.61
2019-02-25T08:52:50.835Z,10.16
2019-02-25T08:55:18.060Z,9.94
2019-02-25T09:00:46.392Z,9.98
2019-02-25T09:03:13.475Z,10.46
2019-02-25T09:11:42.634Z,8.45
2019-02-25T09:14:09.827Z,8.59
2019-02-25T09:22:38.948Z,9.42
2019-02-25T09:25:47.226Z,10.17
2019-02-25T09:28:46.333Z,11.17
2019-02-25T09:34:47.494Z,15.33
2019-02-25T09:37:14.697Z,18.60
2019-02-25T09:39:41.873Z,20.20
2019-02-25T09:42:49.918Z,21.47
2019-02-25T09:45:17.099Z,22.67
2019-02-25T09:54:19.632Z,26.06
2019-02-25T09:57:06.686Z,26.80
2019-02-25T09:59:33.912Z,27.27
2019-02-25T10:02:01.082Z,27.99
2019-02-25T10:07:29.927Z,28.14
2019-02-25T10:09:57.103Z,28.79
2019-02-25T10:12:24.303Z,28.52
2019-02-25T10:14:51.547Z,28.84
2019-02-25T10:17:23.620Z,28.40
2019-02-25T10:23:07.269Z,28.39
2019-02-25T10:25:53.928Z,28.53
2019-02-25T10:28:21.159Z,28.68
2019-02-25T10:30:52.883Z,28.42
2019-02-25T10:34:18.409Z,28.26
2019-02-25T10:36:46.081Z,28.30
2019-02-25T10:39:34.446Z,28.22
2019-02-25T10:42:01.787Z,28.05
2019-02-25T10:45:31.327Z,28.05
2019-02-25T10:47:58.950Z,27.90
2019-02-25T10:50:55.722Z,27.85
2019-02-25T10:53:25.990Z,27.54
2019-02-25T10:56:32.148Z,27.30
2019-02-25T11:02:20.271Z,27.41
2019-02-25T11:04:49.267Z,27.42
2019-02-25T11:07:26.267Z,26.69
2019-02-25T11:13:08.539Z,24.99
2019-02-25T11:18:44.347Z,26.30
2019-02-25T11:21:44.255Z,23.32
2019-02-25T11:24:11.553Z,22.56
2019-02-25T11:26:59.377Z,22.35
2019-02-25T11:33:16.393Z,22.34
2019-02-25T11:45:36.447Z,23.31
2019-02-25T11:51:37.544Z,23.41
2019-02-25T11:54:04.732Z,23.35
2019-02-25T11:56:51.414Z,24.25
2019-02-25T11:59:18.594Z,23.59
2019-02-25T12:01:45.757Z,23.68
2019-02-25T12:04:12.970Z,24.96
2019-02-25T12:06:40.131Z,25.08
2019-02-25T12:12:08.160Z,24.71
2019-02-25T12:14:35.325Z,24.32
2019-02-25T12:17:02.509Z,23.68
2019-02-25T12:19:49.293Z,23.88
2019-02-25T12:22:17.009Z,23.73
2019-02-25T12:24:44.165Z,23.76
2019-02-25T12:27:52.229Z,23.81
2019-02-25T12:32:58.715Z,23.45
2019-02-25T12:35:25.922Z,23.30
2019-02-25T12:40:54.553Z,23.46
2019-02-25T12:43:53.686Z,23.27
2019-02-25T12:49:21.645Z,23.39
2019-02-25T12:52:00.809Z,23.05
2019-02-25T12:54:47.771Z,23.95
2019-02-25T12:57:14.999Z,24.08
2019-02-25T13:00:14.078Z,24.55
2019-02-25T13:06:03.898Z,24.55
2019-02-25T13:08:31.120Z,25.23
2019-02-25T13:10:58.638Z,25.41
2019-02-25T13:13:25.882Z,25.35
2019-02-25T13:18:44.757Z,25.39
2019-02-25T13:24:12.366Z,25.64
2019-02-25T13:26:39.577Z,25.82
2019-02-25T13:29:06.806Z,25.79
2019-02-25T13:32:14.861Z,25.49
2019-02-25T13:34:42.179Z,25.65
2019-02-25T13:37:12.079Z,25.91
2019-02-25T13:39:39.381Z,25.79
2019-02-25T13:42:06.960Z,25.84
2019-02-25T13:44:34.117Z,25.62
2019-02-25T13:47:01.659Z,25.74
2019-02-25T13:49:29.202Z,26.18
2019-02-25T13:51:56.368Z,26.21
2019-02-25T13:54:30.214Z,26.15
2019-02-25T13:56:57.534Z,26.23
2019-02-25T13:59:25.048Z,26.14
2019-02-25T14:01:52.266Z,26.18
2019-02-25T14:04:19.459Z,26.25
2019-02-25T14:06:46.671Z,26.37
2019-02-25T14:09:14.195Z,26.38
2019-02-25T14:14:54.404Z,26.50
2019-02-25T14:17:21.624Z,26.58
2019-02-25T14:19:48.812Z,26.70
2019-02-25T14:28:11.251Z,26.77
2019-02-25T14:30:51.650Z,26.46
2019-02-25T14:36:20.135Z,26.38
2019-02-25T14:38:47.339Z,26.58
2019-02-25T14:41:16.165Z,26.68
2019-02-25T14:44:02.174Z,26.47
2019-02-25T14:49:08.265Z,26.39
2019-02-25T14:51:42.772Z,26.45
2019-02-25T14:57:11.801Z,26.68
2019-02-25T14:59:38.945Z,26.63
2019-02-25T15:05:07.956Z,26.83
2019-02-25T15:07:36.938Z,26.82
2019-02-25T15:13:08.163Z,27.09
2019-02-25T15:15:55.032Z,27.17
2019-02-25T15:18:36.048Z,27.32
2019-02-25T15:25:08.541Z,27.25
2019-02-25T15:27:35.683Z,27.23
2019-02-25T15:30:43.767Z,27.19
2019-02-25T15:33:10.925Z,27.30
2019-02-25T15:35:57.524Z,27.39
2019-02-25T15:45:06.243Z,27.74
2019-02-25T15:47:34.133Z,28.06
2019-02-25T15:50:04.422Z,28.10
2019-02-25T15:52:51.033Z,28.15
2019-02-25T15:55:29.336Z,28.44
2019-02-25T15:58:37.396Z,28.63
2019-02-25T16:04:06.934Z,29.09
2019-02-25T16:09:48.823Z,29.42
2019-02-25T16:12:17.826Z,29.60
2019-02-25T16:15:04.532Z,29.82
2019-02-25T16:17:31.800Z,30.10
2019-02-25T16:29:30.796Z,31.08
2019-02-25T16:37:53.047Z,31.66
2019-02-25T16:43:40.023Z,32.21
2019-02-25T16:46:08.640Z,32.63
2019-02-25T16:48:48.267Z,33.02
2019-02-25T16:51:25.871Z,33.09
2019-02-25T16:54:06.894Z,33.39
2019-02-25T16:56:43.244Z,33.62
2019-02-25T16:59:53.337Z,34.07
2019-02-25T17:05:19.691Z,34.80
2019-02-25T17:07:48.890Z,35.21
2019-02-25T17:13:01.564Z,35.85
2019-02-25T17:21:33.575Z,35.95
2019-02-25T17:24:41.632Z,35.86
2019-02-25T17:30:29.872Z,36.78
2019-02-25T17:39:00.368Z,37.99
2019-02-25T17:41:27.590Z,37.89
2019-02-25T17:43:55.408Z,37.64
2019-02-25T17:46:34.959Z,35.88
2019-02-25T17:49:10.056Z,35.47
2019-02-25T17:51:43.904Z,36.42
2019-02-25T17:54:12.513Z,36.67
2019-02-25T17:56:51.432Z,36.80
2019-02-25T18:02:45.298Z,37.61
2019-02-25T18:05:14.176Z,38.35
2019-02-25T18:07:48.656Z,38.57
2019-02-25T18:13:43.069Z,39.15
2019-02-25T18:16:11.833Z,39.74
2019-02-25T18:18:45.813Z,39.95
2019-02-25T18:21:20.308Z,40.36
2019-02-25T18:23:49.355Z,40.37
2019-02-25T18:26:36.781Z,40.32
2019-02-25T18:29:46.475Z,40.98
2019-02-25T18:35:53.731Z,41.70
2019-02-25T18:41:00.065Z,42.61
2019-02-25T18:49:43.299Z,42.86
2019-02-25T18:52:10.460Z,42.77
2019-02-25T18:54:50.241Z,42.76
2019-02-25T18:57:18.844Z,43.16
2019-02-25T19:00:37.040Z,43.38
2019-02-25T19:15:32.125Z,44.75
2019-02-25T19:20:38.552Z,46.63
2019-02-25T19:23:16.543Z,46.15
2019-02-25T19:28:32.293Z,46.05
2019-02-25T19:30:59.483Z,46.22
2019-02-25T19:33:26.701Z,46.03
2019-02-25T19:35:54.376Z,46.18
2019-02-25T19:41:46.982Z,46.76
2019-02-25T19:44:14.859Z,47.10
2019-02-25T19:50:51.098Z,48.10
2019-02-25T19:53:42.949Z,48.22
2019-02-25T20:03:05.576Z,49.02
2019-02-25T20:05:38.690Z,49.34
2019-02-25T20:08:14.784Z,49.08
2019-02-25T20:10:43.796Z,49.01
2019-02-25T20:13:11.004Z,49.06
2019-02-25T20:15:42.421Z,48.92
2019-02-25T20:18:31.050Z,48.66
2019-02-25T20:24:07.762Z,48.63
2019-02-25T20:26:57.743Z,48.61
2019-02-25T20:32:36.447Z,48.61
2019-02-25T20:35:26.750Z,49.08
2019-02-25T20:38:05.177Z,49.10
2019-02-25T20:40:42.756Z,49.10
2019-02-25T20:43:10.034Z,49.88
2019-02-25T20:46:01.086Z,50.58
2019-02-25T20:51:38.963Z,51.49
2019-02-25T20:54:47.978Z,51.36
2019-02-25T21:00:24.334Z,53.69
2019-02-25T21:03:32.797Z,54.55
2019-02-25T21:06:01.066Z,55.08
2019-02-25T21:09:09.414Z,55.81
2019-02-25T21:11:44.786Z,56.17
2019-02-25T21:14:44.967Z,56.80
2019-02-25T21:19:52.667Z,58.26
2019-02-25T21:22:23.176Z,58.73
2019-02-25T21:28:44.238Z,58.91
2019-02-25T21:34:50.099Z,59.68
2019-02-25T21:37:21.338Z,60.12
2019-02-25T21:39:56.021Z,60.32
2019-02-25T21:42:30.867Z,60.56
2019-02-25T21:45:00.125Z,60.83
2019-02-25T21:48:30.263Z,61.16
2019-02-25T21:54:06.768Z,61.48
2019-02-25T21:56:54.833Z,61.86
2019-02-25T21:59:22.078Z,62.05
2019-02-25T22:02:30.065Z,61.93
2019-02-25T22:05:10.186Z,61.97
2019-02-25T22:07:38.462Z,62.22
2019-02-25T22:10:47.464Z,62.50
2019-02-25T22:13:16.385Z,62.96
2019-02-25T22:16:13.292Z,63.22
2019-02-25T22:24:38.205Z,63.85
2019-02-25T22:27:52.118Z,64.00
2019-02-25T22:30:19.674Z,64.29
2019-02-25T22:32:48.643Z,64.55
2019-02-25T22:35:15.826Z,64.65
2019-02-25T22:37:46.833Z,65.14
2019-02-25T22:43:52.341Z,65.24
2019-02-25T22:46:19.522Z,65.23
2019-02-25T22:48:47.286Z,65.54
2019-02-25T22:51:37.337Z,65.75
2019-02-25T22:57:34.928Z,65.42
2019-02-25T23:00:14.588Z,65.71
2019-02-25T23:02:54.696Z,65.82
2019-02-25T23:05:23.410Z,65.97
2019-02-25T23:08:44.272Z,66.00
2019-02-25T23:11:19.807Z,66.17
2019-02-25T23:14:13.685Z,66.65
2019-02-25T23:26:12.628Z,66.70
2019-02-25T23:29:41.123Z,66.24
2019-02-25T23:32:08.363Z,65.83
2019-02-25T23:34:38.343Z,65.42
2019-02-25T23:37:14.759Z,65.28
2019-02-25T23:39:49.795Z,65.18
2019-02-25T23:42:57.852Z,65.11
2019-02-25T23:48:46.574Z,65.00
2019-02-25T23:51:21.705Z,65.02
2019-02-25T23:53:57.643Z,65.17
2019-02-25T23:56:34.439Z,65.21
2019-02-25T23:59:01.698Z,65.28
